Aeroporto :
LOGIN :

Iscrizione | Disclaimer

   EN    FR    IT 

 










Sommario :    VFR   VFR Marginale   IFR   IFR Intensivo   IFR Molto Intensivo
Visibilità : 
Base nubi : 
>= 8 km
>= 3000ft
5 / 8 km
1000 / 3000 ft
1500m / 5 km
500 / 1000 ft
800 / 1500m
200 / 500 ft
< 800m
< 200 ft
Simboli :   Temporali  Nebbia  Neve Forte  Precipitazioni Forti  Vento > 20 kt
SIGMETs :   Varie  Temporali  Ghiacco  Turbolenza  Onda orograficha  Ceneri Vulcaniche







- Altitudine del aeroporto : 121 ft
- Codice IATA : HUY
- Carte del aeroporto


EGNJ - Humberside

ULTIMO METAR :
  • 190450Z AUTO 20004KT //// // BKN001/// OVC005/// 07/07 Q1024

METARs OBSOLETI :
  • 190420Z AUTO 20005KT //// // BKN002/// OVC035/// 07/07 Q1024
  • 190350Z AUTO 20006KT //// // FEW004/// BKN012/// OVC036/// 07/07 Q1024
  • 190320Z AUTO 20006KT //// // FEW004/// SCT012/// BKN018/// 07/06 Q1023
  • 190250Z AUTO 20005KT //// // FEW007/// SCT017/// BKN028/// 07/06 Q1023
  • 190220Z AUTO 20005KT //// // SCT008/// BKN012/// BKN019/// 07/06 Q1023

TAF TAF EGNJ
Valido dal 18 a 21 ore il 19 a 06 ore UTC


181957Z 1821/1906 24006KT 9999 SCT030
PROB30
TEMPO 1900/1906 6000 -RADZ BKN008
ATIS : +44 1652 682 020
Nessun NOTAM noto per questo aeroporto.



MetMap, La meteo Aeronautica in un colpo d'occhio ! - Copyright ORBIFLY Dicembre 2007 - Disclaimer

ORBIFLY MET'MAP TEAM :

Programmazione e sviluppo : Alexandra Zaïnal
Concezione e sviluppo : Baudouin d'Aumeries
Co-Programmazione e sviluppo : Marc-Olivier Méhu
Supporto tecnico e logistico : Manuel Goepfert
Aiuto per la traduzione : Arnaldo La Scala

Contatto : metmap@orbifly.com




FONTI E CREDITI :

   NOAA